Eastlake, Michigan
Current Conditions -  °F | °C
As of 5:35 AM on Thursday 23 Oct 2014 (Local Time) from KMBL Reporting Station
Clear Clear  
Wind Chill: 20°   Ceiling: Unl
Heat Index: 27°   Visibility: 6mi
Dew Point: 25°   Wind: 6mph
Humidity: 93%   Direction: 90°E
Pressure: 30.24"   Gusts: NA
Location:  44.24°N, 86.3°W
Report Text: KMBL 230935Z AUTO 09005KT 6SM CLR M03/M04 A3024 RMK AO1
Loading
Personal Weather Stations






























Interactive Weather Map New forecast layout! Learn more

10-Day Weather Forecast

Advertisements
Track Severe Weather on mobile